createdAt,value
2019-05-01T00:00:00.405Z,10.17
2019-05-01T00:01:00.370Z,10.20
2019-05-01T00:02:00.355Z,10.18
2019-05-01T00:03:00.363Z,10.21
2019-05-01T00:04:00.342Z,10.09
2019-05-01T00:05:00.345Z,10.16
2019-05-01T00:06:00.310Z,10.14
2019-05-01T00:07:00.298Z,10.09
2019-05-01T00:08:00.288Z,10.06
2019-05-01T00:09:00.278Z,10.08
2019-05-01T00:10:00.294Z,9.98
2019-05-01T00:11:00.255Z,10.02
2019-05-01T00:12:00.242Z,10.02
2019-05-01T00:13:00.230Z,10.02
2019-05-01T00:14:00.220Z,9.90
2019-05-01T00:15:00.236Z,9.99
2019-05-01T00:16:00.204Z,9.91
2019-05-01T00:17:00.190Z,9.94
2019-05-01T00:18:00.181Z,9.88
2019-05-01T00:19:00.192Z,9.87
2019-05-01T00:20:00.177Z,9.90
2019-05-01T00:21:00.143Z,9.85
2019-05-01T00:22:00.131Z,9.84
2019-05-01T00:23:00.122Z,9.91
2019-05-01T00:24:00.108Z,9.91
2019-05-01T00:25:00.124Z,9.87
2019-05-01T00:26:00.091Z,9.88
2019-05-01T00:27:00.075Z,9.87
2019-05-01T00:28:00.068Z,9.91
2019-05-01T00:29:00.053Z,9.87
2019-05-01T00:30:00.067Z,9.72
2019-05-01T00:31:00.034Z,9.80
2019-05-01T00:32:00.025Z,9.77
2019-05-01T00:33:00.041Z,9.70
2019-05-01T00:34:00.003Z,9.77
2019-05-01T00:35:00.017Z,9.70
2019-05-01T00:35:59.976Z,9.72
2019-05-01T00:36:59.968Z,9.63
2019-05-01T00:37:59.954Z,9.66
2019-05-01T00:38:59.944Z,9.62
2019-05-01T00:39:59.961Z,9.59
2019-05-01T00:40:59.922Z,9.55
2019-05-01T00:41:59.909Z,9.59
2019-05-01T00:42:59.899Z,9.62
2019-05-01T00:43:59.892Z,9.59
2019-05-01T00:44:59.898Z,9.51
2019-05-01T00:45:59.865Z,9.42
2019-05-01T00:46:59.855Z,9.32
2019-05-01T00:47:59.843Z,9.32
2019-05-01T00:48:59.834Z,9.32
2019-05-01T00:49:59.843Z,9.24
2019-05-01T00:50:59.808Z,9.18
2019-05-01T00:51:59.801Z,9.18
2019-05-01T00:52:59.786Z,9.14
2019-05-01T00:53:59.775Z,9.15
2019-05-01T00:54:59.807Z,9.19
2019-05-01T00:55:59.755Z,9.09
2019-05-01T00:56:59.749Z,8.99
2019-05-01T00:57:59.732Z,8.95
2019-05-01T00:58:59.723Z,9.03
2019-05-01T00:59:59.721Z,9.08
2019-05-01T01:00:59.718Z,8.98
2019-05-01T01:01:59.689Z,9.08
2019-05-01T01:02:59.673Z,9.11
2019-05-01T01:03:59.669Z,9.11
2019-05-01T01:04:59.651Z,9.15
2019-05-01T01:05:59.664Z,9.09
2019-05-01T01:06:59.632Z,9.12
2019-05-01T01:07:59.621Z,9.06
2019-05-01T01:08:59.607Z,9.04
2019-05-01T01:09:59.597Z,9.12
2019-05-01T01:10:59.605Z,9.09
2019-05-01T01:11:59.579Z,9.19
2019-05-01T01:12:59.563Z,9.15
2019-05-01T01:13:59.560Z,9.12
2019-05-01T01:14:59.541Z,9.14
2019-05-01T01:15:59.550Z,9.15
2019-05-01T01:16:59.520Z,8.99
2019-05-01T01:17:59.507Z,8.98
2019-05-01T01:18:59.494Z,8.93
2019-05-01T01:19:59.484Z,8.99
2019-05-01T01:20:59.494Z,9.03
2019-05-01T01:21:59.460Z,9.01
2019-05-01T01:22:59.449Z,8.99
2019-05-01T01:23:59.440Z,8.96
2019-05-01T01:24:59.425Z,8.99
2019-05-01T01:25:59.439Z,9.01
2019-05-01T01:26:59.403Z,8.89
2019-05-01T01:27:59.394Z,8.95
2019-05-01T01:28:59.383Z,8.95
2019-05-01T01:29:59.371Z,8.89
2019-05-01T01:30:59.382Z,8.83
2019-05-01T01:31:59.349Z,8.77
2019-05-01T01:32:59.339Z,8.71
2019-05-01T01:33:59.402Z,8.75
2019-05-01T01:34:59.322Z,8.74
2019-05-01T01:35:59.329Z,8.71
2019-05-01T01:36:59.294Z,8.71
2019-05-01T01:37:59.281Z,8.68
2019-05-01T01:38:59.272Z,8.75
2019-05-01T01:39:59.260Z,8.72
2019-05-01T01:40:59.271Z,8.74
2019-05-01T01:41:59.237Z,8.89
2019-05-01T01:42:59.227Z,8.77
2019-05-01T01:43:59.213Z,8.72
2019-05-01T01:44:59.202Z,8.67
2019-05-01T01:45:59.216Z,8.72
2019-05-01T01:46:59.183Z,8.72
2019-05-01T01:47:59.173Z,8.63
2019-05-01T01:48:59.157Z,8.65
2019-05-01T01:49:59.146Z,8.62
2019-05-01T01:50:59.158Z,8.57
2019-05-01T01:51:59.235Z,8.60
2019-05-01T01:52:59.131Z,8.47
2019-05-01T01:53:59.111Z,8.49
2019-05-01T01:54:59.090Z,8.46
2019-05-01T01:55:59.112Z,8.37
2019-05-01T01:56:59.067Z,8.42
2019-05-01T01:57:59.063Z,8.52
2019-05-01T01:58:59.049Z,8.38
2019-05-01T01:59:59.038Z,8.38
2019-05-01T02:01:08.921Z,8.42
2019-05-01T02:01:59.038Z,8.41
2019-05-01T02:02:59.002Z,8.42
2019-05-01T02:03:58.990Z,8.37
2019-05-01T02:04:58.978Z,8.26
2019-05-01T02:05:58.989Z,8.28
2019-05-01T02:06:58.956Z,8.26
2019-05-01T02:07:58.946Z,8.23
2019-05-01T02:08:58.946Z,8.29
2019-05-01T02:09:58.927Z,8.19
2019-05-01T02:10:58.936Z,8.20
2019-05-01T02:11:58.900Z,8.21
2019-05-01T02:12:58.890Z,8.24
2019-05-01T02:13:58.879Z,8.14
2019-05-01T02:14:58.871Z,8.10
2019-05-01T02:15:58.883Z,8.14
2019-05-01T02:16:58.851Z,8.12
2019-05-01T02:17:58.836Z,8.12
2019-05-01T02:18:58.823Z,8.12
2019-05-01T02:19:58.811Z,8.06
2019-05-01T02:20:58.823Z,8.06
2019-05-01T02:21:58.789Z,8.13
2019-05-01T02:22:58.778Z,8.12
2019-05-01T02:23:58.819Z,8.19
2019-05-01T02:24:58.759Z,8.12
2019-05-01T02:25:58.769Z,8.14
2019-05-01T02:26:58.732Z,8.17
2019-05-01T02:27:58.721Z,8.24
2019-05-01T02:28:58.710Z,8.09
2019-05-01T02:29:58.699Z,8.06
2019-05-01T02:30:58.712Z,7.99
2019-05-01T02:31:58.676Z,7.98
2019-05-01T02:32:58.668Z,8.09
2019-05-01T02:33:58.660Z,8.02
2019-05-01T02:34:58.645Z,8.04
2019-05-01T02:35:58.663Z,7.98
2019-05-01T02:36:58.625Z,7.88
2019-05-01T02:37:58.610Z,7.87
2019-05-01T02:38:58.610Z,7.88
2019-05-01T02:39:58.597Z,7.92
2019-05-01T02:40:58.634Z,7.96
2019-05-01T02:41:58.568Z,7.98
2019-05-01T02:42:58.563Z,8.02
2019-05-01T02:43:58.552Z,7.99
2019-05-01T02:44:58.549Z,8.02
2019-05-01T02:45:58.522Z,8.04
2019-05-01T02:46:58.553Z,8.02
2019-05-01T02:47:58.501Z,8.05
2019-05-01T02:48:58.489Z,8.09
2019-05-01T02:49:58.478Z,8.10
2019-05-01T02:50:58.466Z,8.04
2019-05-01T02:51:58.480Z,8.06
2019-05-01T02:52:58.447Z,8.13
2019-05-01T02:53:58.432Z,8.06
2019-05-01T02:54:58.421Z,8.06
2019-05-01T02:55:58.410Z,8.04
2019-05-01T02:56:58.441Z,7.99
2019-05-01T02:57:58.391Z,7.96
2019-05-01T02:58:58.377Z,7.98
2019-05-01T02:59:58.368Z,7.88
2019-05-01T03:00:58.355Z,7.87
2019-05-01T03:01:58.373Z,7.91
2019-05-01T03:02:58.340Z,7.74
2019-05-01T03:03:58.321Z,7.87
2019-05-01T03:04:58.313Z,7.81
2019-05-01T03:05:58.300Z,7.71
2019-05-01T03:06:58.316Z,7.73
2019-05-01T03:07:58.277Z,7.73
2019-05-01T03:08:58.267Z,7.68
2019-05-01T03:09:58.259Z,7.78
2019-05-01T03:10:58.249Z,7.73
2019-05-01T03:11:58.257Z,7.68
2019-05-01T03:12:58.222Z,7.62
2019-05-01T03:13:58.211Z,7.61
2019-05-01T03:14:58.201Z,7.62
2019-05-01T03:15:58.193Z,7.60
2019-05-01T03:16:58.209Z,7.66
2019-05-01T03:17:58.174Z,7.60
2019-05-01T03:18:58.156Z,7.52
2019-05-01T03:19:58.148Z,7.64
2019-05-01T03:20:58.134Z,7.64
2019-05-01T03:21:58.150Z,7.55
2019-05-01T03:22:58.113Z,7.57
2019-05-01T03:23:58.100Z,7.55
2019-05-01T03:24:58.089Z,7.64
2019-05-01T03:25:58.105Z,7.69
2019-05-01T03:26:58.092Z,7.69
2019-05-01T03:27:58.055Z,7.62
2019-05-01T03:28:58.044Z,7.69
2019-05-01T03:29:58.037Z,7.76
2019-05-01T03:30:58.023Z,7.78
2019-05-01T03:32:16.056Z,7.84
2019-05-01T03:32:58.002Z,7.77
2019-05-01T03:33:57.989Z,7.76
2019-05-01T03:34:57.981Z,7.87
2019-05-01T03:35:57.967Z,7.76
2019-05-01T03:36:57.993Z,7.81
2019-05-01T03:37:57.952Z,7.88
2019-05-01T03:38:57.941Z,7.91
2019-05-01T03:39:57.923Z,7.91
2019-05-01T03:40:57.912Z,7.88
2019-05-01T03:41:57.927Z,7.86
2019-05-01T03:42:57.893Z,7.95
2019-05-01T03:43:57.890Z,8.06
2019-05-01T03:44:57.879Z,8.04
2019-05-01T03:45:57.858Z,8.05
2019-05-01T03:46:57.871Z,8.10
2019-05-01T03:47:57.833Z,8.04
2019-05-01T03:48:57.826Z,8.06
2019-05-01T03:49:57.814Z,8.13
2019-05-01T03:50:57.800Z,8.12
2019-05-01T03:51:57.816Z,8.12
2019-05-01T03:52:57.782Z,8.17
2019-05-01T03:53:57.769Z,8.20
2019-05-01T03:54:57.758Z,8.21
2019-05-01T03:55:57.755Z,8.17
2019-05-01T03:56:57.813Z,8.19
2019-05-01T03:57:57.723Z,8.28
2019-05-01T03:58:57.714Z,8.20
2019-05-01T03:59:57.701Z,8.24
2019-05-01T04:00:57.690Z,8.28
2019-05-01T04:01:57.714Z,8.20
2019-05-01T04:02:57.670Z,8.24
2019-05-01T04:03:57.656Z,8.21
2019-05-01T04:04:57.645Z,8.19
2019-05-01T04:05:57.636Z,8.20
2019-05-01T04:06:57.714Z,8.21
2019-05-01T04:07:57.613Z,8.31
2019-05-01T04:08:57.605Z,8.16
2019-05-01T04:09:57.590Z,8.23
2019-05-01T04:10:57.578Z,8.29
2019-05-01T04:11:57.600Z,8.28
2019-05-01T04:12:57.556Z,8.42
2019-05-01T04:13:57.545Z,8.34
2019-05-01T04:14:57.533Z,8.46
2019-05-01T04:15:57.523Z,8.41
2019-05-01T04:16:57.545Z,8.44
2019-05-01T04:17:57.500Z,8.38
2019-05-01T04:18:57.490Z,8.47
2019-05-01T04:19:57.478Z,8.41
2019-05-01T04:20:57.466Z,8.42
2019-05-01T04:21:57.500Z,8.35
2019-05-01T04:22:57.448Z,8.49
2019-05-01T04:23:57.438Z,8.35
2019-05-01T04:24:57.427Z,8.42
2019-05-01T04:25:57.438Z,8.46
2019-05-01T04:26:57.403Z,8.50
2019-05-01T04:27:58.814Z,8.59
2019-05-01T04:28:57.382Z,8.59
2019-05-01T04:29:57.367Z,8.63
2019-05-01T04:30:57.357Z,8.63
2019-05-01T04:31:57.345Z,8.63
2019-05-01T04:32:57.358Z,8.67
2019-05-01T04:33:57.322Z,8.67
2019-05-01T04:34:57.312Z,8.75
2019-05-01T04:35:57.300Z,8.71
2019-05-01T04:36:57.288Z,8.75
2019-05-01T04:37:57.319Z,8.72
2019-05-01T04:38:57.269Z,8.74
2019-05-01T04:39:57.258Z,8.80
2019-05-01T04:40:57.255Z,8.80
2019-05-01T04:41:57.233Z,8.75
2019-05-01T04:42:57.254Z,8.81
2019-05-01T04:43:57.216Z,8.85
2019-05-01T04:44:57.202Z,8.83
2019-05-01T04:45:57.191Z,8.78
2019-05-01T04:46:57.179Z,8.81
2019-05-01T04:47:57.194Z,8.88
2019-05-01T04:48:57.158Z,8.83
2019-05-01T04:49:57.153Z,8.88
2019-05-01T04:50:57.139Z,8.89
2019-05-01T04:51:57.158Z,8.81
2019-05-01T04:52:57.132Z,8.83
2019-05-01T04:53:57.098Z,8.89
2019-05-01T04:54:57.087Z,9.08
2019-05-01T04:55:57.091Z,8.85
2019-05-01T04:56:57.069Z,8.99
2019-05-01T04:57:57.085Z,8.86
2019-05-01T04:58:57.047Z,8.81
2019-05-01T04:59:57.031Z,8.88
2019-05-01T05:00:57.019Z,8.89
2019-05-01T05:01:57.668Z,8.92
2019-05-01T05:03:04.635Z,8.90
2019-05-01T05:03:57.028Z,8.95
2019-05-01T05:04:56.982Z,8.96
2019-05-01T05:05:56.964Z,8.92
2019-05-01T05:06:56.953Z,8.88
2019-05-01T05:07:56.966Z,8.81
2019-05-01T05:08:56.936Z,8.85
2019-05-01T05:09:56.921Z,8.90
2019-05-01T05:10:56.907Z,8.93
2019-05-01T05:11:56.899Z,8.99
2019-05-01T05:12:56.908Z,9.04
2019-05-01T05:13:56.874Z,8.98
2019-05-01T05:14:56.861Z,8.99
2019-05-01T05:15:56.850Z,8.98
2019-05-01T05:16:56.844Z,9.01
2019-05-01T05:17:56.857Z,9.08
2019-05-01T05:18:56.816Z,8.99
2019-05-01T05:19:56.805Z,8.99
2019-05-01T05:20:56.799Z,9.09
2019-05-01T05:21:56.782Z,9.08
2019-05-01T05:22:56.793Z,9.16
2019-05-01T05:23:56.760Z,9.23
2019-05-01T05:24:56.751Z,9.22
2019-05-01T05:25:56.739Z,9.29
2019-05-01T05:26:56.726Z,9.15
2019-05-01T05:27:56.750Z,9.23
2019-05-01T05:28:56.703Z,9.27
2019-05-01T05:29:56.694Z,9.29
2019-05-01T05:30:56.681Z,9.33
2019-05-01T05:31:56.671Z,9.30
2019-05-01T05:32:56.687Z,9.40
2019-05-01T05:33:56.647Z,9.45
2019-05-01T05:34:56.636Z,9.36
2019-05-01T05:35:56.626Z,9.47
2019-05-01T05:36:56.617Z,9.50
2019-05-01T05:37:56.629Z,9.65
2019-05-01T05:38:56.592Z,9.62
2019-05-01T05:39:56.581Z,9.62
2019-05-01T05:40:56.570Z,9.62
2019-05-01T05:41:56.560Z,9.63
2019-05-01T05:42:56.572Z,9.60
2019-05-01T05:43:56.548Z,9.60
2019-05-01T05:44:56.529Z,9.57
2019-05-01T05:45:56.516Z,9.60
2019-05-01T05:46:56.502Z,9.62
2019-05-01T05:47:56.516Z,9.63
2019-05-01T05:48:56.483Z,9.62
2019-05-01T05:49:56.474Z,9.60
2019-05-01T05:50:56.464Z,9.63
2019-05-01T05:51:56.445Z,9.65
2019-05-01T05:52:56.458Z,9.69
2019-05-01T05:53:56.423Z,9.77
2019-05-01T05:54:56.412Z,9.77
2019-05-01T05:55:56.401Z,9.87
2019-05-01T05:56:56.392Z,9.85
2019-05-01T05:57:56.406Z,9.81
2019-05-01T05:58:56.367Z,9.84
2019-05-01T05:59:56.357Z,9.84
2019-05-01T06:00:56.344Z,9.75
2019-05-01T06:01:56.333Z,9.85
2019-05-01T06:02:56.360Z,9.85
2019-05-01T06:03:56.311Z,9.85
2019-05-01T06:04:56.315Z,9.84
2019-05-01T06:05:56.288Z,9.81
2019-05-01T06:06:56.281Z,9.88
2019-05-01T06:07:56.266Z,9.91
2019-05-01T06:08:56.277Z,9.83
2019-05-01T06:09:56.242Z,9.75
2019-05-01T06:10:58.419Z,9.80
2019-05-01T06:11:56.221Z,9.80
2019-05-01T06:12:56.210Z,9.84
2019-05-01T06:13:57.003Z,9.87
2019-05-01T06:14:56.198Z,9.91
2019-05-01T06:15:56.178Z,9.93
2019-05-01T06:16:56.164Z,9.90
2019-05-01T06:17:59.094Z,9.91
2019-05-01T06:18:56.176Z,9.99
2019-05-01T06:19:56.133Z,9.93
2019-05-01T06:20:56.977Z,10.01
2019-05-01T06:21:57.110Z,10.05
2019-05-01T06:22:56.097Z,10.05
2019-05-01T06:23:57.806Z,10.01
2019-05-01T06:24:56.077Z,10.03
2019-05-01T06:26:00.211Z,10.02
2019-05-01T06:26:57.052Z,10.08
2019-05-01T06:27:56.043Z,10.10
2019-05-01T06:29:00.588Z,10.10
2019-05-01T06:29:57.024Z,10.17
2019-05-01T06:30:56.007Z,10.09
2019-05-01T06:31:58.819Z,10.18
2019-05-01T06:32:55.986Z,10.09
2019-05-01T06:33:55.999Z,10.08
2019-05-01T06:34:58.490Z,10.20
2019-05-01T06:35:55.951Z,10.18
2019-05-01T06:36:55.938Z,10.23
2019-05-01T06:38:00.221Z,10.21
2019-05-01T06:38:55.945Z,10.17
2019-05-01T06:39:55.907Z,10.18
2019-05-01T06:40:58.290Z,10.18
2019-05-01T06:41:55.882Z,10.21
2019-05-01T06:42:55.869Z,10.24
2019-05-01T06:43:57.127Z,10.36
2019-05-01T06:44:55.852Z,10.28
2019-05-01T06:45:55.843Z,10.48
2019-05-01T06:46:57.969Z,10.45
2019-05-01T06:47:55.817Z,10.55
2019-05-01T06:48:55.825Z,10.46
2019-05-01T06:49:55.791Z,10.52
2019-05-01T06:50:55.781Z,10.55
2019-05-01T06:51:55.773Z,10.55
2019-05-01T06:52:59.705Z,10.58
2019-05-01T06:53:55.774Z,10.55
2019-05-01T06:54:55.734Z,10.52
2019-05-01T06:55:55.734Z,10.61
2019-05-01T06:56:55.749Z,10.55
2019-05-01T06:57:55.702Z,10.55
2019-05-01T06:58:56.452Z,10.54
2019-05-01T06:59:55.678Z,10.58
2019-05-01T07:00:55.670Z,10.65
2019-05-01T07:01:58.344Z,10.70
2019-05-01T07:02:55.644Z,10.65
2019-05-01T07:04:55.624Z,10.60
2019-05-01T07:05:56.314Z,10.62
2019-05-01T07:06:55.604Z,10.58
2019-05-01T07:07:55.591Z,10.57
2019-05-01T07:08:55.602Z,10.54
2019-05-01T07:09:55.579Z,10.49
2019-05-01T07:10:55.557Z,10.49
2019-05-01T07:11:55.566Z,10.48
2019-05-01T07:12:55.539Z,10.45
2019-05-01T07:13:55.926Z,10.42
2019-05-01T07:14:55.507Z,10.34
2019-05-01T07:15:58.700Z,10.34
2019-05-01T07:16:55.489Z,10.38
2019-05-01T07:17:55.475Z,10.41
2019-05-01T07:18:58.420Z,10.39
2019-05-01T07:19:55.454Z,10.36
2019-05-01T07:20:55.547Z,10.30
2019-05-01T07:21:55.432Z,10.28
2019-05-01T07:22:55.419Z,10.21
2019-05-01T07:23:55.443Z,10.30
2019-05-01T07:24:59.022Z,10.35
2019-05-01T07:25:55.385Z,10.39
2019-05-01T07:26:55.373Z,10.52
2019-05-01T07:27:58.437Z,10.43
2019-05-01T07:28:55.356Z,10.52
2019-05-01T07:29:55.361Z,10.55
2019-05-01T07:30:56.168Z,10.57
2019-05-01T07:31:55.316Z,10.61
2019-05-01T07:32:55.306Z,10.58
2019-05-01T07:33:55.292Z,10.70
2019-05-01T07:34:56.843Z,10.68
2019-05-01T07:35:55.273Z,10.80
2019-05-01T07:36:55.258Z,10.85
2019-05-01T07:37:57.533Z,10.86
2019-05-01T07:38:55.235Z,10.93
2019-05-01T07:39:55.254Z,10.95
2019-05-01T07:40:58.750Z,11.09
2019-05-01T07:41:55.205Z,11.16
2019-05-01T07:42:55.193Z,11.09
2019-05-01T07:43:59.648Z,11.23
2019-05-01T07:44:55.196Z,11.20
2019-05-01T07:45:55.161Z,11.22
2019-05-01T07:46:56.226Z,11.30
2019-05-01T07:47:55.134Z,11.34
2019-05-01T07:48:55.130Z,11.43
2019-05-01T07:49:55.136Z,11.54
2019-05-01T07:50:55.103Z,11.54
2019-05-01T07:51:55.091Z,11.52
2019-05-01T07:52:55.081Z,11.61
2019-05-01T07:53:59.138Z,11.58
2019-05-01T07:54:55.087Z,11.62
2019-05-01T07:55:55.051Z,11.64
2019-05-01T07:56:58.840Z,11.71
2019-05-01T07:57:55.025Z,11.66
2019-05-01T07:58:55.010Z,11.64
2019-05-01T07:59:58.390Z,11.62
2019-05-01T08:00:55.991Z,11.70
2019-05-01T08:01:55.709Z,11.71
2019-05-01T08:02:54.966Z,11.77
2019-05-01T08:03:54.966Z,11.80
2019-05-01T08:04:55.089Z,11.82
2019-05-01T08:05:54.935Z,11.84
2019-05-01T08:06:57.069Z,11.79
2019-05-01T08:07:54.919Z,11.85
2019-05-01T08:08:54.899Z,11.76
2019-05-01T08:09:54.912Z,11.80
2019-05-01T08:10:54.877Z,11.84
2019-05-01T08:11:54.867Z,11.85
2019-05-01T08:12:55.508Z,11.85
2019-05-01T08:14:06.607Z,11.87
2019-05-01T08:14:54.860Z,11.85
2019-05-01T08:15:54.821Z,11.91
2019-05-01T08:16:54.810Z,11.91
2019-05-01T08:17:54.802Z,11.87
2019-05-01T08:18:59.031Z,11.76
2019-05-01T08:19:55.802Z,11.88
2019-05-01T08:20:54.765Z,11.82
2019-05-01T08:21:56.899Z,11.80
2019-05-01T08:22:54.747Z,11.84
2019-05-01T08:23:54.734Z,11.89
2019-05-01T08:24:58.713Z,11.79
2019-05-01T08:25:54.712Z,11.89
2019-05-01T08:26:54.698Z,11.95
2019-05-01T08:27:56.255Z,11.97
2019-05-01T08:28:54.677Z,11.93
2019-05-01T08:29:54.694Z,11.97
2019-05-01T08:30:54.660Z,12.04
2019-05-01T08:31:58.777Z,12.10
2019-05-01T08:32:55.638Z,12.15
2019-05-01T08:33:54.624Z,12.22
2019-05-01T08:34:55.754Z,12.18
2019-05-01T08:35:54.621Z,12.13
2019-05-01T08:36:54.588Z,12.07
2019-05-01T08:37:58.538Z,12.14
2019-05-01T08:38:54.611Z,12.14
2019-05-01T08:39:54.593Z,12.17
2019-05-01T08:40:55.476Z,12.15
2019-05-01T08:41:54.607Z,12.18
2019-05-01T08:42:54.520Z,12.21
2019-05-01T08:43:55.899Z,12.25
2019-05-01T08:44:54.497Z,12.22
2019-05-01T08:45:54.513Z,12.22
2019-05-01T08:46:54.479Z,12.30
2019-05-01T08:47:56.766Z,12.28
2019-05-01T08:48:54.462Z,12.18
2019-05-01T08:49:54.486Z,12.26
2019-05-01T08:50:58.977Z,12.23
2019-05-01T08:51:54.425Z,12.26
2019-05-01T08:52:54.431Z,12.28
2019-05-01T08:53:57.939Z,12.43
2019-05-01T08:54:54.916Z,12.38
2019-05-01T08:55:54.397Z,12.48
2019-05-01T08:56:58.233Z,12.47
2019-05-01T08:57:54.355Z,12.55
2019-05-01T08:58:54.352Z,12.61
2019-05-01T08:59:55.734Z,12.58
2019-05-01T09:00:55.343Z,12.65
2019-05-01T09:02:08.468Z,12.63
2019-05-01T09:02:54.308Z,12.68
2019-05-01T09:03:55.619Z,12.71
2019-05-01T09:05:02.214Z,12.71
2019-05-01T09:05:57.536Z,12.71
2019-05-01T09:06:54.253Z,12.77
2019-05-01T09:07:56.027Z,12.76
2019-05-01T09:08:54.229Z,12.79
2019-05-01T09:09:54.218Z,12.83
2019-05-01T09:10:54.853Z,12.83
2019-05-01T09:11:55.202Z,12.84
2019-05-01T09:12:54.187Z,12.81
2019-05-01T09:13:54.702Z,12.86
2019-05-01T09:14:54.165Z,12.83
2019-05-01T09:15:54.174Z,12.87
2019-05-01T09:16:54.142Z,12.79
2019-05-01T09:17:54.184Z,12.84
2019-05-01T09:18:54.121Z,12.95
2019-05-01T09:19:54.111Z,12.91
2019-05-01T09:20:54.122Z,12.98
2019-05-01T09:21:54.088Z,12.99
2019-05-01T09:22:54.075Z,12.99
2019-05-01T09:23:54.064Z,13.05
2019-05-01T09:24:54.051Z,13.02
2019-05-01T09:25:54.068Z,13.05
2019-05-01T09:26:54.028Z,13.09
2019-05-01T09:27:54.071Z,13.05
2019-05-01T09:28:54.006Z,13.04
2019-05-01T09:29:54.001Z,13.02
2019-05-01T09:31:01.624Z,13.02
2019-05-01T09:31:53.976Z,12.90
2019-05-01T09:32:55.476Z,13.02
2019-05-01T09:33:53.951Z,12.99
2019-05-01T09:34:53.997Z,13.02
2019-05-01T09:35:53.957Z,13.02
2019-05-01T09:36:53.917Z,13.08
2019-05-01T09:37:53.912Z,13.17
2019-05-01T09:38:53.917Z,13.13
2019-05-01T09:39:53.919Z,13.24
2019-05-01T09:40:53.896Z,13.29
2019-05-01T09:41:53.900Z,13.35
2019-05-01T09:42:54.686Z,13.46
2019-05-01T09:43:53.852Z,13.43
2019-05-01T09:44:53.828Z,13.63
2019-05-01T09:45:53.843Z,13.72
2019-05-01T09:46:53.809Z,13.88
2019-05-01T09:47:53.795Z,13.96
2019-05-01T09:48:53.788Z,13.94
2019-05-01T09:49:55.620Z,14.04
2019-05-01T09:50:53.809Z,14.11
2019-05-01T09:51:53.753Z,14.11
2019-05-01T09:52:55.090Z,14.11
2019-05-01T09:53:54.730Z,14.26
2019-05-01T09:54:53.720Z,14.28
2019-05-01T09:55:53.707Z,14.40
2019-05-01T09:56:53.722Z,14.41
2019-05-01T09:57:53.683Z,14.45
2019-05-01T09:58:53.676Z,14.63
2019-05-01T09:59:53.661Z,14.56
2019-05-01T10:00:53.950Z,14.59
2019-05-01T10:01:53.662Z,14.67
2019-05-01T10:02:54.755Z,14.66
2019-05-01T10:03:54.409Z,14.77
2019-05-01T10:04:53.605Z,14.85
2019-05-01T10:05:53.597Z,14.82
2019-05-01T10:06:54.160Z,14.71
2019-05-01T10:07:53.573Z,14.73
2019-05-01T10:08:53.560Z,14.86
2019-05-01T10:09:53.983Z,14.89
2019-05-01T10:10:53.541Z,14.95
2019-05-01T10:11:53.556Z,14.93
2019-05-01T10:12:53.523Z,15.12
2019-05-01T10:13:57.957Z,15.17
2019-05-01T10:14:53.493Z,15.23
2019-05-01T10:15:53.485Z,15.40
2019-05-01T10:16:53.597Z,15.54
2019-05-01T10:17:53.460Z,15.48
2019-05-01T10:18:53.450Z,15.47
2019-05-01T10:19:53.443Z,15.63
2019-05-01T10:20:53.427Z,15.72
2019-05-01T10:21:53.440Z,15.90
2019-05-01T10:22:53.406Z,16.03
2019-05-01T10:23:53.781Z,16.13
2019-05-01T10:24:53.384Z,16.10
2019-05-01T10:25:53.381Z,16.13
2019-05-01T10:26:55.054Z,16.09
2019-05-01T10:27:53.354Z,16.25
2019-05-01T10:28:53.417Z,16.32
2019-05-01T10:29:56.872Z,16.39
2019-05-01T10:30:53.320Z,16.51
2019-05-01T10:31:53.330Z,16.72
2019-05-01T10:32:57.801Z,16.91
2019-05-01T10:33:53.288Z,17.13
2019-05-01T10:34:53.277Z,17.27
2019-05-01T10:35:53.260Z,17.54
2019-05-01T10:36:54.520Z,17.71
2019-05-01T10:37:53.239Z,17.81
2019-05-01T10:38:53.342Z,17.87
2019-05-01T10:39:54.110Z,17.78
2019-05-01T10:40:53.204Z,17.63
2019-05-01T10:41:53.217Z,17.63
2019-05-01T10:42:53.183Z,17.76
2019-05-01T10:43:53.190Z,17.76
2019-05-01T10:44:53.225Z,17.87
2019-05-01T10:45:53.159Z,17.91
2019-05-01T10:46:53.161Z,18.09
2019-05-01T10:47:53.141Z,18.15
2019-05-01T10:48:53.124Z,18.30
2019-05-01T10:49:53.108Z,18.41
2019-05-01T10:50:53.095Z,18.33
2019-05-01T10:51:53.110Z,18.41
2019-05-01T10:52:53.073Z,18.30
2019-05-01T10:53:53.062Z,18.38
2019-05-01T10:54:53.050Z,18.46
2019-05-01T10:55:53.051Z,18.60
2019-05-01T10:56:53.052Z,18.67
2019-05-01T10:57:53.017Z,18.64
2019-05-01T10:58:53.009Z,18.67
2019-05-01T10:59:53.005Z,18.83
2019-05-01T11:00:52.984Z,18.86
2019-05-01T11:01:52.997Z,18.93
2019-05-01T11:02:52.962Z,18.91
2019-05-01T11:03:52.951Z,18.97
2019-05-01T11:04:52.948Z,18.98
2019-05-01T11:05:56.058Z,19.08
2019-05-01T11:06:52.947Z,19.24
2019-05-01T11:07:52.910Z,19.26
2019-05-01T11:08:52.902Z,19.45
2019-05-01T11:09:52.888Z,19.39
2019-05-01T11:10:52.879Z,19.23
2019-05-01T11:11:52.897Z,19.26
2019-05-01T11:12:52.872Z,19.26
2019-05-01T11:13:52.850Z,19.30
2019-05-01T11:14:52.833Z,19.47
2019-05-01T11:15:52.826Z,19.41
2019-05-01T11:16:52.848Z,19.57
2019-05-01T11:17:52.803Z,19.68
2019-05-01T11:18:52.870Z,19.68
2019-05-01T11:19:52.784Z,19.78
2019-05-01T11:20:52.775Z,19.94
2019-05-01T11:21:52.759Z,19.99
2019-05-01T11:22:52.776Z,20.12
2019-05-01T11:23:52.736Z,20.17
2019-05-01T11:24:52.724Z,20.18
2019-05-01T11:25:52.715Z,20.29
2019-05-01T11:26:52.702Z,20.44
2019-05-01T11:27:52.720Z,20.52
2019-05-01T11:28:52.682Z,20.48
2019-05-01T11:29:52.673Z,20.55
2019-05-01T11:30:52.657Z,20.64
2019-05-01T11:31:52.653Z,20.71
2019-05-01T11:32:52.661Z,20.80
2019-05-01T11:33:52.627Z,21.00
2019-05-01T11:34:52.633Z,21.04
2019-05-01T11:35:52.605Z,21.25
2019-05-01T11:36:52.594Z,21.32
2019-05-01T11:37:52.617Z,21.53
2019-05-01T11:38:52.573Z,21.84
2019-05-01T11:39:52.565Z,22.04
2019-05-01T11:40:52.556Z,22.23
2019-05-01T11:41:52.544Z,22.59
2019-05-01T11:42:52.558Z,22.85
2019-05-01T11:43:52.521Z,23.17
2019-05-01T11:44:52.531Z,23.42
2019-05-01T11:45:52.500Z,23.61
2019-05-01T11:46:52.509Z,23.79
2019-05-01T11:47:52.503Z,24.06
2019-05-01T11:48:52.470Z,24.22
2019-05-01T11:49:52.460Z,24.52
2019-05-01T11:50:52.450Z,24.89
2019-05-01T11:51:52.444Z,25.14
2019-05-01T11:52:52.459Z,25.51
2019-05-01T11:53:52.450Z,25.86
2019-05-01T11:54:52.414Z,26.12
2019-05-01T11:55:52.401Z,26.42
2019-05-01T11:56:52.392Z,26.73
2019-05-01T11:57:52.407Z,26.90
2019-05-01T11:58:52.382Z,27.25
2019-05-01T11:59:52.365Z,27.37
2019-05-01T12:00:52.353Z,27.47
2019-05-01T12:01:52.343Z,27.47
2019-05-01T12:02:52.356Z,27.60
2019-05-01T12:03:52.325Z,27.75
2019-05-01T12:04:52.322Z,27.94
2019-05-01T12:05:52.313Z,27.94
2019-05-01T12:06:52.295Z,27.97
2019-05-01T12:07:52.377Z,28.00
2019-05-01T12:08:52.280Z,27.94
2019-05-01T12:09:52.267Z,27.64
2019-05-01T12:10:52.257Z,27.66
2019-05-01T12:11:52.249Z,27.60
2019-05-01T12:12:52.331Z,27.64
2019-05-01T12:13:52.227Z,27.25
2019-05-01T12:14:52.218Z,26.89
2019-05-01T12:15:52.396Z,26.61
2019-05-01T12:16:52.202Z,26.30
2019-05-01T12:17:52.215Z,25.92
2019-05-01T12:18:52.193Z,25.58
2019-05-01T12:19:52.178Z,25.23
2019-05-01T12:20:52.158Z,25.06
2019-05-01T12:21:52.156Z,24.84
2019-05-01T12:22:52.215Z,24.75
2019-05-01T12:23:52.130Z,24.58
2019-05-01T12:24:52.120Z,24.44
2019-05-01T12:25:52.107Z,24.25
2019-05-01T12:26:52.102Z,24.23
2019-05-01T12:27:52.109Z,24.07
2019-05-01T12:28:52.108Z,23.98
2019-05-01T12:29:52.067Z,24.01
2019-05-01T12:30:52.058Z,24.06
2019-05-01T12:31:52.045Z,23.98
2019-05-01T12:32:52.062Z,24.04
2019-05-01T12:33:52.024Z,24.04
2019-05-01T12:34:52.016Z,24.04
2019-05-01T12:35:52.022Z,24.03
2019-05-01T12:36:51.998Z,23.97
2019-05-01T12:37:52.017Z,23.84
2019-05-01T12:38:51.972Z,23.82
2019-05-01T12:39:51.986Z,23.89
2019-05-01T12:40:51.961Z,23.89
2019-05-01T12:41:52.023Z,23.92
2019-05-01T12:42:51.955Z,23.88
2019-05-01T12:43:51.921Z,23.81
2019-05-01T12:44:51.913Z,23.98
2019-05-01T12:45:51.913Z,24.04
2019-05-01T12:46:52.229Z,24.08
2019-05-01T12:47:51.911Z,23.76
2019-05-01T12:48:51.869Z,23.73
2019-05-01T12:49:51.903Z,23.84
2019-05-01T12:50:51.942Z,23.92
2019-05-01T12:51:51.842Z,24.06
2019-05-01T12:52:51.862Z,24.28
2019-05-01T12:53:51.823Z,24.43
2019-05-01T12:54:52.222Z,24.45
2019-05-01T12:55:51.794Z,24.55
2019-05-01T12:56:51.786Z,24.62
2019-05-01T12:57:51.808Z,24.71
2019-05-01T12:58:51.761Z,24.94
2019-05-01T12:59:51.779Z,25.01
2019-05-01T13:00:51.748Z,25.19
2019-05-01T13:01:51.733Z,25.34
2019-05-01T13:02:51.736Z,25.31
2019-05-01T13:03:51.732Z,25.27
2019-05-01T13:04:51.707Z,25.34